sensor_id;sensor_type;location;lat;lon;timestamp;P1;durP1;ratioP1;P2;durP2;ratioP2
77573;SDS011;66710;48.868;9.080;2023-04-24T00:00:54;1.30;;;0.90;;
77573;SDS011;66710;48.868;9.080;2023-04-24T00:03:22;2.90;;;0.95;;
77573;SDS011;66710;48.868;9.080;2023-04-24T00:05:48;1.25;;;0.80;;
77573;SDS011;66710;48.868;9.080;2023-04-24T00:08:13;1.23;;;0.90;;
77573;SDS011;66710;48.868;9.080;2023-04-24T00:10:39;1.40;;;0.93;;
77573;SDS011;66710;48.868;9.080;2023-04-24T00:13:04;1.27;;;0.80;;
77573;SDS011;66710;48.868;9.080;2023-04-24T00:15:30;1.85;;;0.95;;
77573;SDS011;66710;48.868;9.080;2023-04-24T00:17:56;0.85;;;0.57;;
77573;SDS011;66710;48.868;9.080;2023-04-24T00:20:21;0.80;;;0.75;;
77573;SDS011;66710;48.868;9.080;2023-04-24T00:22:47;0.55;;;0.50;;
77573;SDS011;66710;48.868;9.080;2023-04-24T00:25:13;1.42;;;1.00;;
77573;SDS011;66710;48.868;9.080;2023-04-24T00:27:38;0.77;;;0.70;;
77573;SDS011;66710;48.868;9.080;2023-04-24T00:30:04;1.13;;;0.77;;
77573;SDS011;66710;48.868;9.080;2023-04-24T00:32:30;1.33;;;0.80;;
77573;SDS011;66710;48.868;9.080;2023-04-24T00:34:55;0.90;;;0.77;;
77573;SDS011;66710;48.868;9.080;2023-04-24T00:37:20;2.03;;;0.90;;
77573;SDS011;66710;48.868;9.080;2023-04-24T00:39:46;0.80;;;0.63;;
77573;SDS011;66710;48.868;9.080;2023-04-24T00:42:11;1.20;;;0.80;;
77573;SDS011;66710;48.868;9.080;2023-04-24T00:44:37;0.95;;;0.65;;
77573;SDS011;66710;48.868;9.080;2023-04-24T00:47:03;1.98;;;0.82;;
77573;SDS011;66710;48.868;9.080;2023-04-24T00:49:28;2.03;;;1.00;;
77573;SDS011;66710;48.868;9.080;2023-04-24T00:51:54;1.38;;;1.00;;
77573;SDS011;66710;48.868;9.080;2023-04-24T00:54:19;3.95;;;1.10;;
77573;SDS011;66710;48.868;9.080;2023-04-24T00:56:45;1.80;;;0.95;;
77573;SDS011;66710;48.868;9.080;2023-04-24T00:59:11;3.03;;;0.80;;
77573;SDS011;66710;48.868;9.080;2023-04-24T01:01:37;2.45;;;0.90;;
77573;SDS011;66710;48.868;9.080;2023-04-24T01:04:07;2.90;;;1.33;;
77573;SDS011;66710;48.868;9.080;2023-04-24T01:06:33;1.67;;;1.00;;
77573;SDS011;66710;48.868;9.080;2023-04-24T01:08:59;1.95;;;0.85;;
77573;SDS011;66710;48.868;9.080;2023-04-24T01:11:25;1.75;;;0.90;;
77573;SDS011;66710;48.868;9.080;2023-04-24T01:13:51;0.88;;;0.57;;
77573;SDS011;66710;48.868;9.080;2023-04-24T01:16:17;0.65;;;0.65;;
77573;SDS011;66710;48.868;9.080;2023-04-24T01:18:44;2.83;;;0.85;;
77573;SDS011;66710;48.868;9.080;2023-04-24T01:21:10;2.20;;;0.90;;
77573;SDS011;66710;48.868;9.080;2023-04-24T01:23:39;2.00;;;1.00;;
77573;SDS011;66710;48.868;9.080;2023-04-24T01:26:05;1.50;;;0.70;;
77573;SDS011;66710;48.868;9.080;2023-04-24T01:28:30;1.02;;;0.80;;
77573;SDS011;66710;48.868;9.080;2023-04-24T01:30:56;0.98;;;0.63;;
77573;SDS011;66710;48.868;9.080;2023-04-24T01:33:21;1.23;;;0.68;;
77573;SDS011;66710;48.868;9.080;2023-04-24T01:35:47;3.22;;;1.00;;
77573;SDS011;66710;48.868;9.080;2023-04-24T01:38:13;1.00;;;0.75;;
77573;SDS011;66710;48.868;9.080;2023-04-24T01:40:39;1.33;;;0.80;;
77573;SDS011;66710;48.868;9.080;2023-04-24T01:43:05;1.77;;;0.90;;
77573;SDS011;66710;48.868;9.080;2023-04-24T01:45:30;1.70;;;0.90;;
77573;SDS011;66710;48.868;9.080;2023-04-24T01:47:56;0.82;;;0.70;;
77573;SDS011;66710;48.868;9.080;2023-04-24T01:50:22;1.55;;;0.80;;
77573;SDS011;66710;48.868;9.080;2023-04-24T01:52:47;1.10;;;0.80;;
77573;SDS011;66710;48.868;9.080;2023-04-24T01:55:12;2.70;;;1.00;;
77573;SDS011;66710;48.868;9.080;2023-04-24T01:57:38;2.28;;;1.17;;
77573;SDS011;66710;48.868;9.080;2023-04-24T02:00:05;1.98;;;0.93;;
77573;SDS011;66710;48.868;9.080;2023-04-24T02:02:31;3.67;;;0.90;;
77573;SDS011;66710;48.868;9.080;2023-04-24T02:04:57;0.68;;;0.60;;
77573;SDS011;66710;48.868;9.080;2023-04-24T02:07:22;1.42;;;1.10;;
77573;SDS011;66710;48.868;9.080;2023-04-24T02:09:48;2.50;;;1.02;;
77573;SDS011;66710;48.868;9.080;2023-04-24T02:12:14;1.13;;;0.88;;
77573;SDS011;66710;48.868;9.080;2023-04-24T02:14:40;1.13;;;0.88;;
77573;SDS011;66710;48.868;9.080;2023-04-24T02:17:07;1.10;;;0.80;;
77573;SDS011;66710;48.868;9.080;2023-04-24T02:19:32;2.15;;;0.98;;
77573;SDS011;66710;48.868;9.080;2023-04-24T02:21:58;1.70;;;1.00;;
77573;SDS011;66710;48.868;9.080;2023-04-24T02:24:23;1.95;;;1.00;;
77573;SDS011;66710;48.868;9.080;2023-04-24T02:26:48;3.03;;;1.10;;
77573;SDS011;66710;48.868;9.080;2023-04-24T02:29:14;1.88;;;1.10;;
77573;SDS011;66710;48.868;9.080;2023-04-24T02:31:40;0.68;;;0.60;;
77573;SDS011;66710;48.868;9.080;2023-04-24T02:34:05;0.95;;;0.80;;
77573;SDS011;66710;48.868;9.080;2023-04-24T02:36:31;2.83;;;1.20;;
77573;SDS011;66710;48.868;9.080;2023-04-24T02:38:56;0.80;;;0.63;;
77573;SDS011;66710;48.868;9.080;2023-04-24T02:41:22;1.02;;;0.77;;
77573;SDS011;66710;48.868;9.080;2023-04-24T02:43:47;1.90;;;0.93;;
77573;SDS011;66710;48.868;9.080;2023-04-24T02:46:12;1.48;;;0.85;;
77573;SDS011;66710;48.868;9.080;2023-04-24T02:48:38;1.63;;;1.10;;
77573;SDS011;66710;48.868;9.080;2023-04-24T02:51:03;0.98;;;0.80;;
77573;SDS011;66710;48.868;9.080;2023-04-24T02:53:29;1.10;;;0.82;;
77573;SDS011;66710;48.868;9.080;2023-04-24T02:55:55;0.90;;;0.70;;
77573;SDS011;66710;48.868;9.080;2023-04-24T02:58:21;1.33;;;1.00;;
77573;SDS011;66710;48.868;9.080;2023-04-24T03:00:46;3.33;;;0.90;;
77573;SDS011;66710;48.868;9.080;2023-04-24T03:03:12;2.45;;;0.88;;
77573;SDS011;66710;48.868;9.080;2023-04-24T03:05:38;3.92;;;1.45;;
77573;SDS011;66710;48.868;9.080;2023-04-24T03:08:03;1.48;;;0.82;;
77573;SDS011;66710;48.868;9.080;2023-04-24T03:10:29;1.50;;;1.00;;
77573;SDS011;66710;48.868;9.080;2023-04-24T03:12:55;2.47;;;1.10;;
77573;SDS011;66710;48.868;9.080;2023-04-24T03:15:20;3.92;;;1.50;;
77573;SDS011;66710;48.868;9.080;2023-04-24T03:17:45;2.25;;;1.10;;
77573;SDS011;66710;48.868;9.080;2023-04-24T03:20:11;1.27;;;0.95;;
77573;SDS011;66710;48.868;9.080;2023-04-24T03:22:36;2.45;;;1.13;;
77573;SDS011;66710;48.868;9.080;2023-04-24T03:25:02;2.17;;;1.10;;
77573;SDS011;66710;48.868;9.080;2023-04-24T03:27:27;1.55;;;0.93;;
77573;SDS011;66710;48.868;9.080;2023-04-24T03:29:53;2.45;;;1.27;;
77573;SDS011;66710;48.868;9.080;2023-04-24T03:32:21;1.77;;;1.10;;
77573;SDS011;66710;48.868;9.080;2023-04-24T03:34:50;1.70;;;0.90;;
77573;SDS011;66710;48.868;9.080;2023-04-24T03:37:15;1.27;;;0.90;;
77573;SDS011;66710;48.868;9.080;2023-04-24T03:39:41;1.38;;;1.00;;
77573;SDS011;66710;48.868;9.080;2023-04-24T03:42:07;1.40;;;0.90;;
77573;SDS011;66710;48.868;9.080;2023-04-24T03:44:33;1.58;;;0.80;;
77573;SDS011;66710;48.868;9.080;2023-04-24T03:46:59;1.02;;;0.80;;
77573;SDS011;66710;48.868;9.080;2023-04-24T03:49:24;1.38;;;0.85;;
77573;SDS011;66710;48.868;9.080;2023-04-24T03:51:50;2.63;;;1.33;;
77573;SDS011;66710;48.868;9.080;2023-04-24T03:54:15;1.52;;;1.10;;
77573;SDS011;66710;48.868;9.080;2023-04-24T03:56:41;1.33;;;0.93;;
77573;SDS011;66710;48.868;9.080;2023-04-24T03:59:06;0.80;;;0.68;;
77573;SDS011;66710;48.868;9.080;2023-04-24T04:01:31;1.42;;;0.90;;
77573;SDS011;66710;48.868;9.080;2023-04-24T04:03:57;1.90;;;0.90;;
77573;SDS011;66710;48.868;9.080;2023-04-24T04:06:22;0.77;;;0.75;;
77573;SDS011;66710;48.868;9.080;2023-04-24T04:08:48;1.77;;;1.08;;
77573;SDS011;66710;48.868;9.080;2023-04-24T04:11:13;2.03;;;1.00;;
77573;SDS011;66710;48.868;9.080;2023-04-24T04:13:38;2.58;;;1.30;;
77573;SDS011;66710;48.868;9.080;2023-04-24T04:16:04;7.25;;;1.65;;
77573;SDS011;66710;48.868;9.080;2023-04-24T04:18:29;2.30;;;1.15;;
77573;SDS011;66710;48.868;9.080;2023-04-24T04:20:55;1.63;;;0.93;;
77573;SDS011;66710;48.868;9.080;2023-04-24T04:23:22;2.30;;;1.25;;
77573;SDS011;66710;48.868;9.080;2023-04-24T04:25:47;1.98;;;1.30;;
77573;SDS011;66710;48.868;9.080;2023-04-24T04:28:13;1.48;;;0.65;;
77573;SDS011;66710;48.868;9.080;2023-04-24T04:30:38;5.85;;;1.20;;
77573;SDS011;66710;48.868;9.080;2023-04-24T04:33:05;1.60;;;1.10;;
77573;SDS011;66710;48.868;9.080;2023-04-24T04:35:30;5.07;;;1.42;;
77573;SDS011;66710;48.868;9.080;2023-04-24T04:37:55;1.90;;;1.10;;
77573;SDS011;66710;48.868;9.080;2023-04-24T04:40:23;3.33;;;1.10;;
77573;SDS011;66710;48.868;9.080;2023-04-24T04:42:49;2.63;;;0.82;;
77573;SDS011;66710;48.868;9.080;2023-04-24T04:45:17;1.98;;;1.00;;
77573;SDS011;66710;48.868;9.080;2023-04-24T04:47:43;2.03;;;1.25;;
77573;SDS011;66710;48.868;9.080;2023-04-24T04:50:09;1.23;;;0.77;;
77573;SDS011;66710;48.868;9.080;2023-04-24T04:52:35;1.92;;;1.13;;
77573;SDS011;66710;48.868;9.080;2023-04-24T04:55:01;1.55;;;1.23;;
77573;SDS011;66710;48.868;9.080;2023-04-24T04:57:26;2.35;;;1.10;;
77573;SDS011;66710;48.868;9.080;2023-04-24T04:59:52;2.72;;;1.40;;
77573;SDS011;66710;48.868;9.080;2023-04-24T05:02:17;2.78;;;1.30;;
77573;SDS011;66710;48.868;9.080;2023-04-24T05:04:42;2.83;;;1.55;;
77573;SDS011;66710;48.868;9.080;2023-04-24T05:07:08;2.60;;;1.40;;
77573;SDS011;66710;48.868;9.080;2023-04-24T05:09:33;1.73;;;1.08;;
77573;SDS011;66710;48.868;9.080;2023-04-24T05:11:58;2.15;;;1.40;;
77573;SDS011;66710;48.868;9.080;2023-04-24T05:14:24;3.17;;;1.50;;
77573;SDS011;66710;48.868;9.080;2023-04-24T05:16:49;2.17;;;1.33;;
77573;SDS011;66710;48.868;9.080;2023-04-24T05:19:15;2.97;;;1.50;;
77573;SDS011;66710;48.868;9.080;2023-04-24T05:21:40;2.03;;;1.33;;
77573;SDS011;66710;48.868;9.080;2023-04-24T05:24:06;4.10;;;1.52;;
77573;SDS011;66710;48.868;9.080;2023-04-24T05:26:32;2.65;;;1.63;;
77573;SDS011;66710;48.868;9.080;2023-04-24T05:28:57;2.28;;;1.38;;
77573;SDS011;66710;48.868;9.080;2023-04-24T05:31:23;3.10;;;1.55;;
77573;SDS011;66710;48.868;9.080;2023-04-24T05:33:48;2.67;;;1.50;;
77573;SDS011;66710;48.868;9.080;2023-04-24T05:36:13;3.15;;;1.50;;
77573;SDS011;66710;48.868;9.080;2023-04-24T05:38:39;3.50;;;1.52;;
77573;SDS011;66710;48.868;9.080;2023-04-24T05:41:05;2.88;;;1.73;;
77573;SDS011;66710;48.868;9.080;2023-04-24T05:43:30;3.22;;;1.83;;
77573;SDS011;66710;48.868;9.080;2023-04-24T05:45:56;3.08;;;1.65;;
77573;SDS011;66710;48.868;9.080;2023-04-24T05:48:21;4.10;;;1.67;;
77573;SDS011;66710;48.868;9.080;2023-04-24T05:50:49;3.67;;;2.00;;
77573;SDS011;66710;48.868;9.080;2023-04-24T05:53:15;5.65;;;2.15;;
77573;SDS011;66710;48.868;9.080;2023-04-24T05:55:41;3.72;;;2.00;;
77573;SDS011;66710;48.868;9.080;2023-04-24T05:58:06;4.00;;;2.00;;
77573;SDS011;66710;48.868;9.080;2023-04-24T06:00:33;4.45;;;1.77;;
77573;SDS011;66710;48.868;9.080;2023-04-24T06:02:59;2.58;;;1.48;;
77573;SDS011;66710;48.868;9.080;2023-04-24T06:05:25;3.88;;;2.00;;
77573;SDS011;66710;48.868;9.080;2023-04-24T06:07:51;3.05;;;1.77;;
77573;SDS011;66710;48.868;9.080;2023-04-24T06:10:16;3.22;;;2.00;;
77573;SDS011;66710;48.868;9.080;2023-04-24T06:12:42;2.72;;;1.42;;
77573;SDS011;66710;48.868;9.080;2023-04-24T06:15:07;2.83;;;1.88;;
77573;SDS011;66710;48.868;9.080;2023-04-24T06:17:33;3.17;;;1.55;;
77573;SDS011;66710;48.868;9.080;2023-04-24T06:19:59;2.22;;;1.65;;
77573;SDS011;66710;48.868;9.080;2023-04-24T06:22:24;2.63;;;1.80;;
77573;SDS011;66710;48.868;9.080;2023-04-24T06:24:49;6.05;;;1.52;;
77573;SDS011;66710;48.868;9.080;2023-04-24T06:27:15;3.10;;;1.70;;
77573;SDS011;66710;48.868;9.080;2023-04-24T06:29:40;3.92;;;1.60;;
77573;SDS011;66710;48.868;9.080;2023-04-24T06:32:05;4.75;;;1.88;;
77573;SDS011;66710;48.868;9.080;2023-04-24T06:34:31;3.00;;;1.90;;
77573;SDS011;66710;48.868;9.080;2023-04-24T06:36:59;3.28;;;1.60;;
77573;SDS011;66710;48.868;9.080;2023-04-24T06:39:24;3.30;;;1.48;;
77573;SDS011;66710;48.868;9.080;2023-04-24T06:41:50;3.60;;;1.60;;
77573;SDS011;66710;48.868;9.080;2023-04-24T06:44:15;3.58;;;1.80;;
77573;SDS011;66710;48.868;9.080;2023-04-24T06:46:41;3.60;;;2.03;;
77573;SDS011;66710;48.868;9.080;2023-04-24T06:49:07;3.95;;;2.20;;
77573;SDS011;66710;48.868;9.080;2023-04-24T06:51:32;2.90;;;1.60;;
77573;SDS011;66710;48.868;9.080;2023-04-24T06:53:58;3.38;;;1.85;;
77573;SDS011;66710;48.868;9.080;2023-04-24T06:56:24;3.40;;;2.05;;
77573;SDS011;66710;48.868;9.080;2023-04-24T06:58:51;2.47;;;1.58;;
77573;SDS011;66710;48.868;9.080;2023-04-24T07:01:16;3.63;;;1.75;;
77573;SDS011;66710;48.868;9.080;2023-04-24T07:03:42;3.90;;;1.70;;
77573;SDS011;66710;48.868;9.080;2023-04-24T07:06:07;3.15;;;1.67;;
77573;SDS011;66710;48.868;9.080;2023-04-24T07:08:35;2.35;;;1.27;;
77573;SDS011;66710;48.868;9.080;2023-04-24T07:11:00;2.50;;;1.42;;
77573;SDS011;66710;48.868;9.080;2023-04-24T07:13:26;3.00;;;1.58;;
77573;SDS011;66710;48.868;9.080;2023-04-24T07:15:51;3.63;;;1.77;;
77573;SDS011;66710;48.868;9.080;2023-04-24T07:18:20;2.65;;;1.38;;
77573;SDS011;66710;48.868;9.080;2023-04-24T07:20:45;2.35;;;1.10;;
77573;SDS011;66710;48.868;9.080;2023-04-24T07:23:11;3.65;;;1.40;;
77573;SDS011;66710;48.868;9.080;2023-04-24T07:25:36;3.35;;;1.52;;
77573;SDS011;66710;48.868;9.080;2023-04-24T07:28:02;2.67;;;1.55;;
77573;SDS011;66710;48.868;9.080;2023-04-24T07:30:27;1.30;;;0.95;;
77573;SDS011;66710;48.868;9.080;2023-04-24T07:32:54;2.60;;;1.42;;
77573;SDS011;66710;48.868;9.080;2023-04-24T07:35:20;2.25;;;1.42;;
77573;SDS011;66710;48.868;9.080;2023-04-24T07:37:45;2.30;;;1.35;;
77573;SDS011;66710;48.868;9.080;2023-04-24T07:40:14;3.03;;;1.50;;
77573;SDS011;66710;48.868;9.080;2023-04-24T07:42:39;1.30;;;1.00;;
77573;SDS011;66710;48.868;9.080;2023-04-24T07:45:05;1.63;;;1.20;;
77573;SDS011;66710;48.868;9.080;2023-04-24T07:47:31;1.65;;;1.20;;
77573;SDS011;66710;48.868;9.080;2023-04-24T07:49:57;1.40;;;1.23;;
77573;SDS011;66710;48.868;9.080;2023-04-24T07:52:23;1.67;;;1.42;;
77573;SDS011;66710;48.868;9.080;2023-04-24T07:54:49;2.35;;;1.30;;
77573;SDS011;66710;48.868;9.080;2023-04-24T07:57:15;4.22;;;1.55;;
77573;SDS011;66710;48.868;9.080;2023-04-24T07:59:41;1.75;;;1.33;;
77573;SDS011;66710;48.868;9.080;2023-04-24T08:02:07;2.45;;;1.63;;
77573;SDS011;66710;48.868;9.080;2023-04-24T08:04:32;1.85;;;1.50;;
77573;SDS011;66710;48.868;9.080;2023-04-24T08:06:58;3.13;;;1.80;;
77573;SDS011;66710;48.868;9.080;2023-04-24T08:09:23;1.90;;;1.40;;
77573;SDS011;66710;48.868;9.080;2023-04-24T08:11:49;2.30;;;1.50;;
77573;SDS011;66710;48.868;9.080;2023-04-24T08:14:14;2.65;;;1.05;;
77573;SDS011;66710;48.868;9.080;2023-04-24T08:16:40;2.53;;;1.50;;
77573;SDS011;66710;48.868;9.080;2023-04-24T08:19:06;3.17;;;1.52;;
77573;SDS011;66710;48.868;9.080;2023-04-24T08:21:32;3.47;;;1.70;;
77573;SDS011;66710;48.868;9.080;2023-04-24T08:23:57;2.22;;;1.38;;
77573;SDS011;66710;48.868;9.080;2023-04-24T08:26:22;2.28;;;1.35;;
77573;SDS011;66710;48.868;9.080;2023-04-24T08:28:48;2.28;;;1.40;;
77573;SDS011;66710;48.868;9.080;2023-04-24T08:31:13;2.85;;;1.48;;
77573;SDS011;66710;48.868;9.080;2023-04-24T08:33:39;2.88;;;1.30;;
77573;SDS011;66710;48.868;9.080;2023-04-24T08:36:05;1.85;;;1.23;;
77573;SDS011;66710;48.868;9.080;2023-04-24T08:38:32;2.50;;;1.40;;
77573;SDS011;66710;48.868;9.080;2023-04-24T08:40:58;2.90;;;1.50;;
77573;SDS011;66710;48.868;9.080;2023-04-24T08:43:24;1.70;;;1.30;;
77573;SDS011;66710;48.868;9.080;2023-04-24T08:45:51;1.88;;;1.25;;
77573;SDS011;66710;48.868;9.080;2023-04-24T08:48:17;1.55;;;1.20;;
77573;SDS011;66710;48.868;9.080;2023-04-24T08:50:43;1.60;;;1.02;;
77573;SDS011;66710;48.868;9.080;2023-04-24T08:53:09;1.98;;;1.38;;
77573;SDS011;66710;48.868;9.080;2023-04-24T08:55:35;1.67;;;1.30;;
77573;SDS011;66710;48.868;9.080;2023-04-24T08:58:02;3.90;;;1.40;;
77573;SDS011;66710;48.868;9.080;2023-04-24T09:00:29;1.67;;;1.13;;
77573;SDS011;66710;48.868;9.080;2023-04-24T09:02:55;0.88;;;0.65;;
77573;SDS011;66710;48.868;9.080;2023-04-24T09:05:21;1.92;;;1.13;;
77573;SDS011;66710;48.868;9.080;2023-04-24T09:07:57;2.90;;;1.40;;
77573;SDS011;66710;48.868;9.080;2023-04-24T09:10:26;1.23;;;1.00;;
77573;SDS011;66710;48.868;9.080;2023-04-24T09:12:53;3.17;;;1.30;;
77573;SDS011;66710;48.868;9.080;2023-04-24T09:15:19;2.35;;;1.05;;
77573;SDS011;66710;48.868;9.080;2023-04-24T09:17:45;1.17;;;0.90;;
77573;SDS011;66710;48.868;9.080;2023-04-24T09:20:11;0.95;;;0.80;;
77573;SDS011;66710;48.868;9.080;2023-04-24T09:22:36;1.42;;;1.00;;
77573;SDS011;66710;48.868;9.080;2023-04-24T09:25:03;1.67;;;1.02;;
77573;SDS011;66710;48.868;9.080;2023-04-24T09:27:30;1.92;;;0.95;;
77573;SDS011;66710;48.868;9.080;2023-04-24T09:29:56;0.88;;;0.73;;
77573;SDS011;66710;48.868;9.080;2023-04-24T09:32:23;1.70;;;1.08;;
77573;SDS011;66710;48.868;9.080;2023-04-24T09:35:04;2.25;;;1.27;;
77573;SDS011;66710;48.868;9.080;2023-04-24T09:37:38;3.75;;;1.05;;
77573;SDS011;66710;48.868;9.080;2023-04-24T09:40:16;1.08;;;0.90;;
77573;SDS011;66710;48.868;9.080;2023-04-24T09:42:54;3.42;;;1.25;;
77573;SDS011;66710;48.868;9.080;2023-04-24T09:45:21;2.75;;;1.17;;
77573;SDS011;66710;48.868;9.080;2023-04-24T09:47:51;2.78;;;1.10;;
77573;SDS011;66710;48.868;9.080;2023-04-24T09:50:18;0.93;;;0.90;;
77573;SDS011;66710;48.868;9.080;2023-04-24T09:52:44;2.30;;;1.23;;
77573;SDS011;66710;48.868;9.080;2023-04-24T09:55:12;2.47;;;0.90;;
77573;SDS011;66710;48.868;9.080;2023-04-24T09:57:48;1.48;;;1.17;;
77573;SDS011;66710;48.868;9.080;2023-04-24T10:00:17;1.10;;;1.00;;
77573;SDS011;66710;48.868;9.080;2023-04-24T10:02:43;2.03;;;1.10;;
77573;SDS011;66710;48.868;9.080;2023-04-24T10:05:09;2.88;;;1.40;;
77573;SDS011;66710;48.868;9.080;2023-04-24T10:07:37;2.00;;;1.50;;
77573;SDS011;66710;48.868;9.080;2023-04-24T10:10:03;1.73;;;0.98;;
77573;SDS011;66710;48.868;9.080;2023-04-24T10:12:28;3.05;;;1.30;;
77573;SDS011;66710;48.868;9.080;2023-04-24T10:14:55;2.25;;;1.20;;
77573;SDS011;66710;48.868;9.080;2023-04-24T10:17:22;2.03;;;1.15;;
77573;SDS011;66710;48.868;9.080;2023-04-24T10:19:50;2.20;;;1.05;;
77573;SDS011;66710;48.868;9.080;2023-04-24T10:22:16;2.58;;;1.50;;
77573;SDS011;66710;48.868;9.080;2023-04-24T10:24:42;1.60;;;1.23;;
77573;SDS011;66710;48.868;9.080;2023-04-24T10:27:09;2.13;;;1.20;;
77573;SDS011;66710;48.868;9.080;2023-04-24T10:29:34;2.45;;;1.40;;
77573;SDS011;66710;48.868;9.080;2023-04-24T10:32:01;1.55;;;1.10;;
77573;SDS011;66710;48.868;9.080;2023-04-24T10:34:26;1.63;;;1.17;;
77573;SDS011;66710;48.868;9.080;2023-04-24T10:36:52;1.35;;;0.95;;
77573;SDS011;66710;48.868;9.080;2023-04-24T10:39:20;2.10;;;1.30;;
77573;SDS011;66710;48.868;9.080;2023-04-24T10:41:48;2.08;;;1.23;;
77573;SDS011;66710;48.868;9.080;2023-04-24T10:44:14;1.60;;;1.20;;
77573;SDS011;66710;48.868;9.080;2023-04-24T10:46:46;3.15;;;1.30;;
77573;SDS011;66710;48.868;9.080;2023-04-24T10:49:27;3.15;;;1.30;;
77573;SDS011;66710;48.868;9.080;2023-04-24T10:51:54;1.88;;;1.10;;
77573;SDS011;66710;48.868;9.080;2023-04-24T10:54:26;2.10;;;1.35;;
77573;SDS011;66710;48.868;9.080;2023-04-24T10:56:53;1.90;;;1.27;;
77573;SDS011;66710;48.868;9.080;2023-04-24T10:59:39;2.20;;;1.40;;
77573;SDS011;66710;48.868;9.080;2023-04-24T11:02:04;1.80;;;1.20;;
77573;SDS011;66710;48.868;9.080;2023-04-24T11:04:33;1.45;;;1.00;;
77573;SDS011;66710;48.868;9.080;2023-04-24T11:07:00;2.67;;;1.40;;
77573;SDS011;66710;48.868;9.080;2023-04-24T11:09:29;2.13;;;1.10;;
77573;SDS011;66710;48.868;9.080;2023-04-24T11:12:03;1.95;;;1.10;;
77573;SDS011;66710;48.868;9.080;2023-04-24T11:15:21;2.10;;;1.08;;
77573;SDS011;66710;48.868;9.080;2023-04-24T11:17:36;1.67;;;1.20;;
77573;SDS011;66710;48.868;9.080;2023-04-24T11:20:06;2.40;;;1.40;;
77573;SDS011;66710;48.868;9.080;2023-04-24T11:22:37;2.03;;;1.40;;
77573;SDS011;66710;48.868;9.080;2023-04-24T11:25:06;3.42;;;1.38;;
77573;SDS011;66710;48.868;9.080;2023-04-24T11:27:41;2.20;;;1.10;;
77573;SDS011;66710;48.868;9.080;2023-04-24T11:30:08;2.58;;;1.40;;
77573;SDS011;66710;48.868;9.080;2023-04-24T11:32:39;2.78;;;1.55;;
77573;SDS011;66710;48.868;9.080;2023-04-24T11:37:34;1.98;;;1.30;;
77573;SDS011;66710;48.868;9.080;2023-04-24T11:40:08;2.25;;;1.08;;
77573;SDS011;66710;48.868;9.080;2023-04-24T11:42:36;2.42;;;1.40;;
77573;SDS011;66710;48.868;9.080;2023-04-24T11:45:02;2.13;;;1.20;;
77573;SDS011;66710;48.868;9.080;2023-04-24T11:47:34;1.70;;;1.25;;
77573;SDS011;66710;48.868;9.080;2023-04-24T11:50:00;2.03;;;1.30;;
77573;SDS011;66710;48.868;9.080;2023-04-24T11:52:26;3.25;;;1.50;;
77573;SDS011;66710;48.868;9.080;2023-04-24T11:54:52;1.75;;;1.13;;
77573;SDS011;66710;48.868;9.080;2023-04-24T11:57:21;2.35;;;1.42;;
77573;SDS011;66710;48.868;9.080;2023-04-24T11:59:48;0.88;;;0.82;;
77573;SDS011;66710;48.868;9.080;2023-04-24T12:02:23;1.90;;;1.23;;
77573;SDS011;66710;48.868;9.080;2023-04-24T12:04:51;1.92;;;1.33;;
77573;SDS011;66710;48.868;9.080;2023-04-24T12:07:17;2.55;;;1.50;;
77573;SDS011;66710;48.868;9.080;2023-04-24T12:09:43;2.53;;;1.50;;
77573;SDS011;66710;48.868;9.080;2023-04-24T12:12:11;1.98;;;1.35;;
77573;SDS011;66710;48.868;9.080;2023-04-24T12:14:54;1.38;;;1.08;;
77573;SDS011;66710;48.868;9.080;2023-04-24T12:17:25;1.98;;;1.40;;
77573;SDS011;66710;48.868;9.080;2023-04-24T12:22:47;3.17;;;1.33;;
77573;SDS011;66710;48.868;9.080;2023-04-24T12:25:14;3.08;;;1.55;;
77573;SDS011;66710;48.868;9.080;2023-04-24T12:27:40;3.55;;;1.60;;
77573;SDS011;66710;48.868;9.080;2023-04-24T12:30:09;1.60;;;1.13;;
77573;SDS011;66710;48.868;9.080;2023-04-24T12:32:40;1.33;;;1.20;;
77573;SDS011;66710;48.868;9.080;2023-04-24T12:35:06;1.77;;;1.17;;
77573;SDS011;66710;48.868;9.080;2023-04-24T12:37:33;2.33;;;1.30;;
77573;SDS011;66710;48.868;9.080;2023-04-24T12:39:59;2.15;;;1.20;;
77573;SDS011;66710;48.868;9.080;2023-04-24T12:42:26;3.97;;;1.92;;
77573;SDS011;66710;48.868;9.080;2023-04-24T12:44:55;2.30;;;1.50;;
77573;SDS011;66710;48.868;9.080;2023-04-24T12:47:22;2.85;;;1.20;;
77573;SDS011;66710;48.868;9.080;2023-04-24T12:49:47;2.78;;;1.17;;
77573;SDS011;66710;48.868;9.080;2023-04-24T12:52:15;1.42;;;1.05;;
77573;SDS011;66710;48.868;9.080;2023-04-24T12:54:42;2.47;;;1.20;;
77573;SDS011;66710;48.868;9.080;2023-04-24T12:57:07;2.42;;;1.10;;
77573;SDS011;66710;48.868;9.080;2023-04-24T12:59:32;2.35;;;1.10;;
77573;SDS011;66710;48.868;9.080;2023-04-24T13:01:58;1.15;;;0.88;;
77573;SDS011;66710;48.868;9.080;2023-04-24T13:04:23;1.77;;;1.23;;
77573;SDS011;66710;48.868;9.080;2023-04-24T13:06:49;1.65;;;1.23;;
77573;SDS011;66710;48.868;9.080;2023-04-24T13:09:15;2.70;;;1.73;;
77573;SDS011;66710;48.868;9.080;2023-04-24T13:11:40;2.67;;;1.70;;
77573;SDS011;66710;48.868;9.080;2023-04-24T13:14:05;2.90;;;1.75;;
77573;SDS011;66710;48.868;9.080;2023-04-24T13:16:30;2.50;;;1.50;;
77573;SDS011;66710;48.868;9.080;2023-04-24T13:18:56;2.90;;;1.60;;
77573;SDS011;66710;48.868;9.080;2023-04-24T13:21:21;3.10;;;1.80;;
77573;SDS011;66710;48.868;9.080;2023-04-24T13:23:46;2.75;;;1.77;;
77573;SDS011;66710;48.868;9.080;2023-04-24T13:26:11;3.08;;;1.83;;
77573;SDS011;66710;48.868;9.080;2023-04-24T13:28:37;3.00;;;1.90;;
77573;SDS011;66710;48.868;9.080;2023-04-24T13:31:03;3.30;;;1.80;;
77573;SDS011;66710;48.868;9.080;2023-04-24T13:33:28;2.70;;;1.70;;
77573;SDS011;66710;48.868;9.080;2023-04-24T13:35:54;3.67;;;2.25;;
77573;SDS011;66710;48.868;9.080;2023-04-24T13:38:19;4.22;;;2.42;;
77573;SDS011;66710;48.868;9.080;2023-04-24T13:40:46;3.85;;;2.08;;
77573;SDS011;66710;48.868;9.080;2023-04-24T13:43:11;3.47;;;2.10;;
77573;SDS011;66710;48.868;9.080;2023-04-24T13:45:37;2.70;;;1.33;;
77573;SDS011;66710;48.868;9.080;2023-04-24T13:48:02;2.20;;;1.55;;
77573;SDS011;66710;48.868;9.080;2023-04-24T13:50:28;5.35;;;2.00;;
77573;SDS011;66710;48.868;9.080;2023-04-24T13:52:53;2.53;;;1.60;;
77573;SDS011;66710;48.868;9.080;2023-04-24T13:55:19;4.15;;;1.50;;
77573;SDS011;66710;48.868;9.080;2023-04-24T13:57:44;3.08;;;1.80;;
77573;SDS011;66710;48.868;9.080;2023-04-24T14:00:10;2.67;;;1.55;;
77573;SDS011;66710;48.868;9.080;2023-04-24T14:02:36;3.42;;;1.80;;
77573;SDS011;66710;48.868;9.080;2023-04-24T14:05:01;2.63;;;1.65;;
77573;SDS011;66710;48.868;9.080;2023-04-24T14:07:28;2.83;;;1.60;;
77573;SDS011;66710;48.868;9.080;2023-04-24T14:09:53;2.67;;;1.45;;
77573;SDS011;66710;48.868;9.080;2023-04-24T14:12:19;1.63;;;1.20;;
77573;SDS011;66710;48.868;9.080;2023-04-24T14:14:46;2.35;;;1.50;;
77573;SDS011;66710;48.868;9.080;2023-04-24T14:17:12;2.28;;;1.42;;
77573;SDS011;66710;48.868;9.080;2023-04-24T14:19:38;2.38;;;1.42;;
77573;SDS011;66710;48.868;9.080;2023-04-24T14:22:03;2.08;;;1.45;;
77573;SDS011;66710;48.868;9.080;2023-04-24T14:24:28;1.88;;;1.17;;
77573;SDS011;66710;48.868;9.080;2023-04-24T14:26:54;1.30;;;1.20;;
77573;SDS011;66710;48.868;9.080;2023-04-24T14:29:19;4.13;;;1.55;;
77573;SDS011;66710;48.868;9.080;2023-04-24T14:31:44;2.85;;;1.55;;
77573;SDS011;66710;48.868;9.080;2023-04-24T14:34:10;4.45;;;1.48;;
77573;SDS011;66710;48.868;9.080;2023-04-24T14:36:35;3.78;;;1.92;;
77573;SDS011;66710;48.868;9.080;2023-04-24T14:39:00;1.92;;;1.17;;
77573;SDS011;66710;48.868;9.080;2023-04-24T14:41:30;1.88;;;1.17;;
77573;SDS011;66710;48.868;9.080;2023-04-24T14:43:56;2.38;;;1.23;;
77573;SDS011;66710;48.868;9.080;2023-04-24T14:46:21;2.25;;;1.52;;
77573;SDS011;66710;48.868;9.080;2023-04-24T14:48:47;2.60;;;1.63;;